Terminal Aerodrome Forecast
Issued by NWS

Home | Current Version | Previous Version | Text Only | Print | Product List | Glossary On
Versions: 1 2 3 4 5 6 7 8 9 10 11 12 13 14 15 16 17 18 19 20 21 22 23 24 25 26 27 28 29 30 31 32
000
FTUS41 KOKX 240843 AAB
TAFGON
TAF AMD
KGON 240843Z 2409/2506 VRB02KT P6SM SCT250
      TEMPO 2409/2412 2SM BR
     FM241500 18006KT P6SM SCT250
     FM242300 14006KT P6SM BKN200
     FM250200 11006KT P6SM BKN035
     FM250300 10006KT 5SM -RA BKN018=

USA.gov is the U.S. government's official web portal to all federal, state and local government web resources and services.